sensor_id;sensor_type;location;lat;lon;timestamp;P1;durP1;ratioP1;P2;durP2;ratioP2
14858;SDS011;7521;51.700;6.874;2024-03-06T00:00:40;23.30;;;17.47;;
14858;SDS011;7521;51.700;6.874;2024-03-06T00:03:45;22.20;;;17.08;;
14858;SDS011;7521;51.700;6.874;2024-03-06T00:06:51;23.98;;;17.95;;
14858;SDS011;7521;51.700;6.874;2024-03-06T00:10:00;26.63;;;19.03;;
14858;SDS011;7521;51.700;6.874;2024-03-06T00:13:05;22.83;;;18.10;;
14858;SDS011;7521;51.700;6.874;2024-03-06T00:16:10;25.80;;;19.40;;
14858;SDS011;7521;51.700;6.874;2024-03-06T00:19:18;23.13;;;17.05;;
14858;SDS011;7521;51.700;6.874;2024-03-06T00:22:24;24.53;;;18.13;;
14858;SDS011;7521;51.700;6.874;2024-03-06T00:25:29;24.87;;;18.57;;
14858;SDS011;7521;51.700;6.874;2024-03-06T00:28:34;27.87;;;19.67;;
14858;SDS011;7521;51.700;6.874;2024-03-06T00:31:43;28.80;;;21.07;;
14858;SDS011;7521;51.700;6.874;2024-03-06T00:34:49;31.37;;;22.67;;
14858;SDS011;7521;51.700;6.874;2024-03-06T00:37:54;35.93;;;24.80;;
14858;SDS011;7521;51.700;6.874;2024-03-06T00:40:59;32.20;;;23.03;;
14858;SDS011;7521;51.700;6.874;2024-03-06T00:44:04;33.58;;;22.88;;
14858;SDS011;7521;51.700;6.874;2024-03-06T00:47:10;33.50;;;23.03;;
14858;SDS011;7521;51.700;6.874;2024-03-06T00:50:16;30.48;;;22.50;;
14858;SDS011;7521;51.700;6.874;2024-03-06T00:53:21;33.17;;;24.10;;
14858;SDS011;7521;51.700;6.874;2024-03-06T00:56:27;30.90;;;22.10;;
14858;SDS011;7521;51.700;6.874;2024-03-06T00:59:32;32.77;;;23.70;;
14858;SDS011;7521;51.700;6.874;2024-03-06T01:02:37;28.38;;;22.80;;
14858;SDS011;7521;51.700;6.874;2024-03-06T01:05:43;32.63;;;23.20;;
14858;SDS011;7521;51.700;6.874;2024-03-06T01:08:48;31.53;;;23.20;;
14858;SDS011;7521;51.700;6.874;2024-03-06T01:11:53;30.48;;;22.23;;
14858;SDS011;7521;51.700;6.874;2024-03-06T01:14:58;33.28;;;23.38;;
14858;SDS011;7521;51.700;6.874;2024-03-06T01:18:03;34.97;;;25.48;;
14858;SDS011;7521;51.700;6.874;2024-03-06T01:21:09;35.23;;;25.10;;
14858;SDS011;7521;51.700;6.874;2024-03-06T01:24:14;37.07;;;26.60;;
14858;SDS011;7521;51.700;6.874;2024-03-06T01:27:19;37.72;;;25.40;;
14858;SDS011;7521;51.700;6.874;2024-03-06T01:30:25;30.27;;;23.07;;
14858;SDS011;7521;51.700;6.874;2024-03-06T01:33:30;36.83;;;26.53;;
14858;SDS011;7521;51.700;6.874;2024-03-06T01:36:35;37.87;;;26.03;;
14858;SDS011;7521;51.700;6.874;2024-03-06T01:39:40;38.53;;;28.27;;
14858;SDS011;7521;51.700;6.874;2024-03-06T01:42:46;37.23;;;26.77;;
14858;SDS011;7521;51.700;6.874;2024-03-06T01:45:52;38.27;;;26.67;;
14858;SDS011;7521;51.700;6.874;2024-03-06T01:48:58;35.87;;;25.70;;
14858;SDS011;7521;51.700;6.874;2024-03-06T01:52:03;35.23;;;26.97;;
14858;SDS011;7521;51.700;6.874;2024-03-06T01:55:08;37.43;;;26.50;;
14858;SDS011;7521;51.700;6.874;2024-03-06T01:58:14;41.10;;;29.43;;
14858;SDS011;7521;51.700;6.874;2024-03-06T02:01:19;43.27;;;28.73;;
14858;SDS011;7521;51.700;6.874;2024-03-06T02:04:26;36.67;;;26.77;;
14858;SDS011;7521;51.700;6.874;2024-03-06T02:07:33;39.07;;;27.97;;
14858;SDS011;7521;51.700;6.874;2024-03-06T02:10:38;38.13;;;26.90;;
14858;SDS011;7521;51.700;6.874;2024-03-06T02:13:43;39.80;;;28.13;;
14858;SDS011;7521;51.700;6.874;2024-03-06T02:16:49;37.63;;;27.83;;
14858;SDS011;7521;51.700;6.874;2024-03-06T02:19:55;36.08;;;26.55;;
14858;SDS011;7521;51.700;6.874;2024-03-06T02:23:00;32.73;;;25.00;;
14858;SDS011;7521;51.700;6.874;2024-03-06T02:26:05;33.65;;;25.05;;
14858;SDS011;7521;51.700;6.874;2024-03-06T02:29:12;36.83;;;26.30;;
14858;SDS011;7521;51.700;6.874;2024-03-06T02:32:17;36.22;;;26.00;;
14858;SDS011;7521;51.700;6.874;2024-03-06T02:35:23;34.73;;;25.33;;
14858;SDS011;7521;51.700;6.874;2024-03-06T02:38:28;34.20;;;24.58;;
14858;SDS011;7521;51.700;6.874;2024-03-06T02:41:33;38.97;;;26.05;;
14858;SDS011;7521;51.700;6.874;2024-03-06T02:44:38;35.97;;;26.40;;
14858;SDS011;7521;51.700;6.874;2024-03-06T02:47:44;31.55;;;23.88;;
14858;SDS011;7521;51.700;6.874;2024-03-06T02:50:49;33.10;;;23.27;;
14858;SDS011;7521;51.700;6.874;2024-03-06T02:53:54;34.50;;;24.40;;
14858;SDS011;7521;51.700;6.874;2024-03-06T02:57:00;42.90;;;24.20;;
14858;SDS011;7521;51.700;6.874;2024-03-06T03:00:05;31.67;;;22.87;;
14858;SDS011;7521;51.700;6.874;2024-03-06T03:03:14;31.27;;;21.90;;
14858;SDS011;7521;51.700;6.874;2024-03-06T03:06:19;28.40;;;21.87;;
14858;SDS011;7521;51.700;6.874;2024-03-06T03:09:24;25.03;;;19.93;;
14858;SDS011;7521;51.700;6.874;2024-03-06T03:12:30;29.00;;;21.43;;
14858;SDS011;7521;51.700;6.874;2024-03-06T03:15:35;29.27;;;21.77;;
14858;SDS011;7521;51.700;6.874;2024-03-06T03:18:40;25.93;;;20.17;;
14858;SDS011;7521;51.700;6.874;2024-03-06T03:21:45;27.33;;;21.63;;
14858;SDS011;7521;51.700;6.874;2024-03-06T03:24:50;24.23;;;19.70;;
14858;SDS011;7521;51.700;6.874;2024-03-06T03:27:56;24.67;;;20.17;;
14858;SDS011;7521;51.700;6.874;2024-03-06T03:31:01;28.50;;;21.45;;
14858;SDS011;7521;51.700;6.874;2024-03-06T03:34:06;29.80;;;21.27;;
14858;SDS011;7521;51.700;6.874;2024-03-06T03:37:12;24.47;;;19.53;;
14858;SDS011;7521;51.700;6.874;2024-03-06T03:40:18;26.60;;;19.57;;
14858;SDS011;7521;51.700;6.874;2024-03-06T03:43:23;27.50;;;19.90;;
14858;SDS011;7521;51.700;6.874;2024-03-06T03:46:28;27.33;;;20.20;;
14858;SDS011;7521;51.700;6.874;2024-03-06T03:49:34;20.75;;;15.88;;
14858;SDS011;7521;51.700;6.874;2024-03-06T03:52:40;17.03;;;14.60;;
14858;SDS011;7521;51.700;6.874;2024-03-06T03:55:46;20.27;;;17.10;;
14858;SDS011;7521;51.700;6.874;2024-03-06T03:58:51;22.20;;;18.10;;
14858;SDS011;7521;51.700;6.874;2024-03-06T04:01:57;22.10;;;17.63;;
14858;SDS011;7521;51.700;6.874;2024-03-06T04:05:02;21.30;;;16.03;;
14858;SDS011;7521;51.700;6.874;2024-03-06T04:08:07;23.13;;;17.27;;
14858;SDS011;7521;51.700;6.874;2024-03-06T04:11:12;22.30;;;17.43;;
14858;SDS011;7521;51.700;6.874;2024-03-06T04:14:18;21.48;;;16.98;;
14858;SDS011;7521;51.700;6.874;2024-03-06T04:17:24;22.00;;;16.77;;
14858;SDS011;7521;51.700;6.874;2024-03-06T04:20:30;20.33;;;15.63;;
14858;SDS011;7521;51.700;6.874;2024-03-06T04:23:35;19.50;;;16.00;;
14858;SDS011;7521;51.700;6.874;2024-03-06T04:26:41;16.20;;;14.10;;
14858;SDS011;7521;51.700;6.874;2024-03-06T04:29:46;16.83;;;14.40;;
14858;SDS011;7521;51.700;6.874;2024-03-06T04:32:51;18.33;;;14.57;;
14858;SDS011;7521;51.700;6.874;2024-03-06T04:35:56;19.23;;;14.68;;
14858;SDS011;7521;51.700;6.874;2024-03-06T04:39:01;19.90;;;15.90;;
14858;SDS011;7521;51.700;6.874;2024-03-06T04:42:12;16.50;;;14.80;;
14858;SDS011;7521;51.700;6.874;2024-03-06T04:45:17;15.63;;;13.52;;
14858;SDS011;7521;51.700;6.874;2024-03-06T04:48:22;17.53;;;14.53;;
14858;SDS011;7521;51.700;6.874;2024-03-06T04:51:27;19.43;;;14.53;;
14858;SDS011;7521;51.700;6.874;2024-03-06T04:54:32;17.60;;;14.73;;
14858;SDS011;7521;51.700;6.874;2024-03-06T04:57:38;16.70;;;14.83;;
14858;SDS011;7521;51.700;6.874;2024-03-06T05:00:45;20.60;;;15.77;;
14858;SDS011;7521;51.700;6.874;2024-03-06T05:03:50;19.83;;;16.25;;
14858;SDS011;7521;51.700;6.874;2024-03-06T05:06:56;19.07;;;15.77;;
14858;SDS011;7521;51.700;6.874;2024-03-06T05:10:01;20.33;;;16.25;;
14858;SDS011;7521;51.700;6.874;2024-03-06T05:13:07;20.40;;;15.47;;
14858;SDS011;7521;51.700;6.874;2024-03-06T05:16:12;23.27;;;17.00;;
14858;SDS011;7521;51.700;6.874;2024-03-06T05:19:17;22.75;;;16.90;;
14858;SDS011;7521;51.700;6.874;2024-03-06T05:22:22;21.15;;;16.60;;
14858;SDS011;7521;51.700;6.874;2024-03-06T05:25:28;22.67;;;16.83;;
14858;SDS011;7521;51.700;6.874;2024-03-06T05:28:33;23.25;;;17.10;;
14858;SDS011;7521;51.700;6.874;2024-03-06T05:31:38;24.13;;;17.95;;
14858;SDS011;7521;51.700;6.874;2024-03-06T05:34:43;30.13;;;18.83;;
14858;SDS011;7521;51.700;6.874;2024-03-06T05:37:49;25.50;;;19.30;;
14858;SDS011;7521;51.700;6.874;2024-03-06T05:40:54;31.03;;;21.53;;
14858;SDS011;7521;51.700;6.874;2024-03-06T05:44:00;27.47;;;20.40;;
14858;SDS011;7521;51.700;6.874;2024-03-06T05:47:05;28.87;;;20.70;;
14858;SDS011;7521;51.700;6.874;2024-03-06T05:50:11;31.40;;;21.33;;
14858;SDS011;7521;51.700;6.874;2024-03-06T05:53:17;27.85;;;20.55;;
14858;SDS011;7521;51.700;6.874;2024-03-06T05:56:22;27.85;;;20.00;;
14858;SDS011;7521;51.700;6.874;2024-03-06T05:59:27;22.35;;;18.08;;
14858;SDS011;7521;51.700;6.874;2024-03-06T06:02:33;22.17;;;17.83;;
14858;SDS011;7521;51.700;6.874;2024-03-06T06:05:39;25.58;;;18.85;;
14858;SDS011;7521;51.700;6.874;2024-03-06T06:08:45;28.67;;;16.33;;
14858;SDS011;7521;51.700;6.874;2024-03-06T06:11:50;34.17;;;17.37;;
14858;SDS011;7521;51.700;6.874;2024-03-06T06:14:55;27.03;;;18.60;;
14858;SDS011;7521;51.700;6.874;2024-03-06T06:18:00;26.40;;;18.90;;
14858;SDS011;7521;51.700;6.874;2024-03-06T06:21:06;24.52;;;18.05;;
14858;SDS011;7521;51.700;6.874;2024-03-06T06:24:12;23.03;;;18.23;;
14858;SDS011;7521;51.700;6.874;2024-03-06T06:27:17;29.75;;;21.45;;
14858;SDS011;7521;51.700;6.874;2024-03-06T06:30:22;36.20;;;20.90;;
14858;SDS011;7521;51.700;6.874;2024-03-06T06:33:28;31.00;;;21.43;;
14858;SDS011;7521;51.700;6.874;2024-03-06T06:36:34;32.97;;;21.93;;
14858;SDS011;7521;51.700;6.874;2024-03-06T06:39:39;34.60;;;21.73;;
14858;SDS011;7521;51.700;6.874;2024-03-06T06:42:45;30.23;;;20.95;;
14858;SDS011;7521;51.700;6.874;2024-03-06T06:45:54;32.23;;;21.77;;
14858;SDS011;7521;51.700;6.874;2024-03-06T06:48:59;35.00;;;23.80;;
14858;SDS011;7521;51.700;6.874;2024-03-06T06:52:05;37.00;;;22.60;;
14858;SDS011;7521;51.700;6.874;2024-03-06T06:55:10;37.50;;;24.43;;
14858;SDS011;7521;51.700;6.874;2024-03-06T06:58:16;36.70;;;23.50;;
14858;SDS011;7521;51.700;6.874;2024-03-06T07:01:21;32.37;;;22.57;;
14858;SDS011;7521;51.700;6.874;2024-03-06T07:04:27;29.77;;;21.87;;
14858;SDS011;7521;51.700;6.874;2024-03-06T07:07:32;32.10;;;22.23;;
14858;SDS011;7521;51.700;6.874;2024-03-06T07:10:37;31.90;;;23.05;;
14858;SDS011;7521;51.700;6.874;2024-03-06T07:13:42;37.57;;;23.57;;
14858;SDS011;7521;51.700;6.874;2024-03-06T07:16:48;33.90;;;23.70;;
14858;SDS011;7521;51.700;6.874;2024-03-06T07:19:53;35.30;;;23.90;;
14858;SDS011;7521;51.700;6.874;2024-03-06T07:22:58;40.45;;;24.25;;
14858;SDS011;7521;51.700;6.874;2024-03-06T07:26:03;38.90;;;25.57;;
14858;SDS011;7521;51.700;6.874;2024-03-06T07:29:10;41.87;;;26.57;;
14858;SDS011;7521;51.700;6.874;2024-03-06T07:32:19;40.30;;;26.77;;
14858;SDS011;7521;51.700;6.874;2024-03-06T07:35:24;51.77;;;29.80;;
14858;SDS011;7521;51.700;6.874;2024-03-06T07:38:30;44.13;;;27.83;;
14858;SDS011;7521;51.700;6.874;2024-03-06T07:41:35;36.03;;;24.80;;
14858;SDS011;7521;51.700;6.874;2024-03-06T07:44:40;41.67;;;26.20;;
14858;SDS011;7521;51.700;6.874;2024-03-06T07:47:45;53.63;;;28.77;;
14858;SDS011;7521;51.700;6.874;2024-03-06T07:50:50;41.55;;;25.92;;
14858;SDS011;7521;51.700;6.874;2024-03-06T07:53:56;43.70;;;27.50;;
14858;SDS011;7521;51.700;6.874;2024-03-06T07:57:02;41.93;;;26.97;;
14858;SDS011;7521;51.700;6.874;2024-03-06T08:00:08;48.40;;;31.50;;
14858;SDS011;7521;51.700;6.874;2024-03-06T08:03:19;47.20;;;30.07;;
14858;SDS011;7521;51.700;6.874;2024-03-06T08:06:24;59.53;;;31.70;;
14858;SDS011;7521;51.700;6.874;2024-03-06T08:09:30;62.00;;;31.90;;
14858;SDS011;7521;51.700;6.874;2024-03-06T08:12:35;64.13;;;33.33;;
14858;SDS011;7521;51.700;6.874;2024-03-06T08:15:40;52.75;;;29.83;;
14858;SDS011;7521;51.700;6.874;2024-03-06T08:18:49;48.60;;;28.97;;
14858;SDS011;7521;51.700;6.874;2024-03-06T08:21:54;40.53;;;27.25;;
14858;SDS011;7521;51.700;6.874;2024-03-06T08:24:59;44.67;;;29.97;;
14858;SDS011;7521;51.700;6.874;2024-03-06T08:28:04;49.00;;;28.73;;
14858;SDS011;7521;51.700;6.874;2024-03-06T08:31:10;52.67;;;29.23;;
14858;SDS011;7521;51.700;6.874;2024-03-06T08:34:15;52.17;;;28.57;;
14858;SDS011;7521;51.700;6.874;2024-03-06T08:37:21;47.10;;;29.00;;
14858;SDS011;7521;51.700;6.874;2024-03-06T08:40:26;50.45;;;30.35;;
14858;SDS011;7521;51.700;6.874;2024-03-06T08:43:33;55.60;;;33.00;;
14858;SDS011;7521;51.700;6.874;2024-03-06T08:46:38;48.40;;;32.03;;
14858;SDS011;7521;51.700;6.874;2024-03-06T08:49:43;49.50;;;32.13;;
14858;SDS011;7521;51.700;6.874;2024-03-06T08:52:48;53.80;;;33.13;;
14858;SDS011;7521;51.700;6.874;2024-03-06T08:55:53;50.33;;;31.50;;
14858;SDS011;7521;51.700;6.874;2024-03-06T08:58:59;44.63;;;29.67;;
14858;SDS011;7521;51.700;6.874;2024-03-06T09:02:17;52.92;;;31.83;;
14858;SDS011;7521;51.700;6.874;2024-03-06T09:05:23;57.93;;;32.43;;
14858;SDS011;7521;51.700;6.874;2024-03-06T09:08:28;66.95;;;34.47;;
14858;SDS011;7521;51.700;6.874;2024-03-06T09:11:34;64.20;;;34.07;;
14858;SDS011;7521;51.700;6.874;2024-03-06T09:14:40;74.07;;;36.00;;
14858;SDS011;7521;51.700;6.874;2024-03-06T09:17:46;69.07;;;35.43;;
14858;SDS011;7521;51.700;6.874;2024-03-06T09:20:53;70.97;;;35.13;;
14858;SDS011;7521;51.700;6.874;2024-03-06T09:23:58;76.57;;;36.67;;
14858;SDS011;7521;51.700;6.874;2024-03-06T09:27:03;81.25;;;39.35;;
14858;SDS011;7521;51.700;6.874;2024-03-06T09:30:09;73.73;;;37.47;;
14858;SDS011;7521;51.700;6.874;2024-03-06T09:33:14;88.97;;;41.17;;
14858;SDS011;7521;51.700;6.874;2024-03-06T09:36:19;89.95;;;41.92;;
14858;SDS011;7521;51.700;6.874;2024-03-06T09:39:24;93.93;;;43.38;;
14858;SDS011;7521;51.700;6.874;2024-03-06T09:42:29;94.53;;;43.10;;
14858;SDS011;7521;51.700;6.874;2024-03-06T09:45:35;96.57;;;45.60;;
14858;SDS011;7521;51.700;6.874;2024-03-06T09:48:44;96.63;;;46.30;;
14858;SDS011;7521;51.700;6.874;2024-03-06T09:51:50;107.00;;;46.33;;
14858;SDS011;7521;51.700;6.874;2024-03-06T09:54:57;106.87;;;49.93;;
14858;SDS011;7521;51.700;6.874;2024-03-06T09:58:03;119.33;;;53.53;;
14858;SDS011;7521;51.700;6.874;2024-03-06T10:01:10;109.77;;;50.87;;
14858;SDS011;7521;51.700;6.874;2024-03-06T10:04:18;119.47;;;55.13;;
14858;SDS011;7521;51.700;6.874;2024-03-06T10:07:23;117.63;;;53.33;;
14858;SDS011;7521;51.700;6.874;2024-03-06T10:10:28;125.67;;;55.13;;
14858;SDS011;7521;51.700;6.874;2024-03-06T10:13:33;113.57;;;51.60;;
14858;SDS011;7521;51.700;6.874;2024-03-06T10:16:54;120.70;;;54.00;;
14858;SDS011;7521;51.700;6.874;2024-03-06T10:20:01;113.70;;;52.70;;
14858;SDS011;7521;51.700;6.874;2024-03-06T10:23:10;119.93;;;55.03;;
14858;SDS011;7521;51.700;6.874;2024-03-06T10:26:15;121.90;;;56.50;;
14858;SDS011;7521;51.700;6.874;2024-03-06T10:29:21;120.68;;;54.15;;
14858;SDS011;7521;51.700;6.874;2024-03-06T10:32:26;127.60;;;54.87;;
14858;SDS011;7521;51.700;6.874;2024-03-06T10:35:32;116.35;;;55.88;;
14858;SDS011;7521;51.700;6.874;2024-03-06T10:38:37;108.03;;;52.97;;
14858;SDS011;7521;51.700;6.874;2024-03-06T10:41:45;112.10;;;54.73;;
14858;SDS011;7521;51.700;6.874;2024-03-06T10:44:52;121.20;;;56.40;;
14858;SDS011;7521;51.700;6.874;2024-03-06T10:47:58;94.73;;;51.40;;
14858;SDS011;7521;51.700;6.874;2024-03-06T10:51:04;104.27;;;62.10;;
14858;SDS011;7521;51.700;6.874;2024-03-06T10:54:10;104.07;;;56.80;;
14858;SDS011;7521;51.700;6.874;2024-03-06T10:57:16;101.43;;;56.57;;
14858;SDS011;7521;51.700;6.874;2024-03-06T11:00:24;101.80;;;54.20;;
14858;SDS011;7521;51.700;6.874;2024-03-06T11:03:29;103.57;;;55.93;;
14858;SDS011;7521;51.700;6.874;2024-03-06T11:06:35;95.50;;;53.53;;
14858;SDS011;7521;51.700;6.874;2024-03-06T11:09:40;101.60;;;54.87;;
14858;SDS011;7521;51.700;6.874;2024-03-06T11:12:46;96.63;;;52.07;;
14858;SDS011;7521;51.700;6.874;2024-03-06T11:15:52;103.37;;;56.50;;
14858;SDS011;7521;51.700;6.874;2024-03-06T11:19:16;109.63;;;58.57;;
14858;SDS011;7521;51.700;6.874;2024-03-06T11:28:55;109.40;;;58.67;;
14858;SDS011;7521;51.700;6.874;2024-03-06T11:35:07;104.67;;;58.57;;
14858;SDS011;7521;51.700;6.874;2024-03-06T11:38:17;98.30;;;55.60;;
14858;SDS011;7521;51.700;6.874;2024-03-06T11:41:22;85.57;;;50.13;;
14858;SDS011;7521;51.700;6.874;2024-03-06T11:44:28;97.73;;;54.67;;
14858;SDS011;7521;51.700;6.874;2024-03-06T11:47:42;93.37;;;53.70;;
14858;SDS011;7521;51.700;6.874;2024-03-06T11:51:00;74.97;;;46.90;;
14858;SDS011;7521;51.700;6.874;2024-03-06T11:54:07;79.77;;;45.33;;
14858;SDS011;7521;51.700;6.874;2024-03-06T11:57:12;77.10;;;45.47;;
14858;SDS011;7521;51.700;6.874;2024-03-06T12:00:21;77.77;;;46.87;;
14858;SDS011;7521;51.700;6.874;2024-03-06T12:03:27;77.13;;;45.00;;
14858;SDS011;7521;51.700;6.874;2024-03-06T12:06:32;78.73;;;44.70;;
14858;SDS011;7521;51.700;6.874;2024-03-06T12:09:38;75.40;;;44.80;;
14858;SDS011;7521;51.700;6.874;2024-03-06T12:12:44;65.80;;;39.73;;
14858;SDS011;7521;51.700;6.874;2024-03-06T12:15:50;71.10;;;41.50;;
14858;SDS011;7521;51.700;6.874;2024-03-06T12:18:55;66.50;;;40.47;;
14858;SDS011;7521;51.700;6.874;2024-03-06T12:22:02;58.23;;;36.23;;
14858;SDS011;7521;51.700;6.874;2024-03-06T12:25:10;56.37;;;35.40;;
14858;SDS011;7521;51.700;6.874;2024-03-06T12:28:23;53.53;;;34.23;;
14858;SDS011;7521;51.700;6.874;2024-03-06T12:31:29;51.53;;;29.93;;
14858;SDS011;7521;51.700;6.874;2024-03-06T12:34:34;44.57;;;27.03;;
14858;SDS011;7521;51.700;6.874;2024-03-06T12:37:39;41.40;;;26.70;;
14858;SDS011;7521;51.700;6.874;2024-03-06T12:40:44;42.50;;;27.47;;
14858;SDS011;7521;51.700;6.874;2024-03-06T12:43:49;49.33;;;30.20;;
14858;SDS011;7521;51.700;6.874;2024-03-06T12:46:55;43.27;;;26.77;;
14858;SDS011;7521;51.700;6.874;2024-03-06T12:50:00;38.03;;;23.83;;
14858;SDS011;7521;51.700;6.874;2024-03-06T12:53:05;36.27;;;23.23;;
14858;SDS011;7521;51.700;6.874;2024-03-06T12:56:10;36.17;;;22.10;;
14858;SDS011;7521;51.700;6.874;2024-03-06T12:59:16;38.70;;;22.63;;
14858;SDS011;7521;51.700;6.874;2024-03-06T13:02:21;37.85;;;21.70;;
14858;SDS011;7521;51.700;6.874;2024-03-06T13:05:26;26.73;;;18.70;;
14858;SDS011;7521;51.700;6.874;2024-03-06T13:08:31;27.45;;;18.63;;
14858;SDS011;7521;51.700;6.874;2024-03-06T13:11:36;27.23;;;16.93;;
14858;SDS011;7521;51.700;6.874;2024-03-06T13:14:42;26.50;;;17.17;;
14858;SDS011;7521;51.700;6.874;2024-03-06T13:17:47;26.93;;;18.00;;
14858;SDS011;7521;51.700;6.874;2024-03-06T13:20:52;28.65;;;18.73;;
14858;SDS011;7521;51.700;6.874;2024-03-06T13:23:57;26.93;;;18.30;;
14858;SDS011;7521;51.700;6.874;2024-03-06T13:27:04;29.27;;;19.17;;
14858;SDS011;7521;51.700;6.874;2024-03-06T13:30:09;31.70;;;22.73;;
14858;SDS011;7521;51.700;6.874;2024-03-06T13:33:14;32.77;;;23.43;;
14858;SDS011;7521;51.700;6.874;2024-03-06T13:36:20;37.33;;;27.80;;
14858;SDS011;7521;51.700;6.874;2024-03-06T13:39:27;33.87;;;24.87;;
14858;SDS011;7521;51.700;6.874;2024-03-06T13:42:32;37.10;;;26.87;;
14858;SDS011;7521;51.700;6.874;2024-03-06T13:45:37;42.40;;;31.30;;
14858;SDS011;7521;51.700;6.874;2024-03-06T13:48:43;38.80;;;30.17;;
14858;SDS011;7521;51.700;6.874;2024-03-06T13:51:48;37.47;;;29.87;;
14858;SDS011;7521;51.700;6.874;2024-03-06T13:54:53;39.47;;;30.48;;
14858;SDS011;7521;51.700;6.874;2024-03-06T13:57:58;36.22;;;30.33;;
14858;SDS011;7521;51.700;6.874;2024-03-06T14:01:04;39.38;;;29.70;;
14858;SDS011;7521;51.700;6.874;2024-03-06T14:04:10;36.47;;;29.27;;
14858;SDS011;7521;51.700;6.874;2024-03-06T14:07:15;36.10;;;29.30;;
14858;SDS011;7521;51.700;6.874;2024-03-06T14:10:23;43.67;;;35.20;;
14858;SDS011;7521;51.700;6.874;2024-03-06T14:13:29;37.23;;;30.23;;
14858;SDS011;7521;51.700;6.874;2024-03-06T14:16:34;42.38;;;34.33;;
14858;SDS011;7521;51.700;6.874;2024-03-06T14:19:40;42.23;;;32.30;;
14858;SDS011;7521;51.700;6.874;2024-03-06T14:22:45;39.97;;;32.00;;
14858;SDS011;7521;51.700;6.874;2024-03-06T14:25:50;40.33;;;30.93;;
14858;SDS011;7521;51.700;6.874;2024-03-06T14:28:55;36.93;;;29.20;;
14858;SDS011;7521;51.700;6.874;2024-03-06T14:32:01;55.13;;;31.67;;
14858;SDS011;7521;51.700;6.874;2024-03-06T14:35:06;40.10;;;27.63;;
14858;SDS011;7521;51.700;6.874;2024-03-06T14:38:12;32.43;;;26.20;;
14858;SDS011;7521;51.700;6.874;2024-03-06T14:41:18;30.17;;;25.37;;
14858;SDS011;7521;51.700;6.874;2024-03-06T14:44:24;33.20;;;27.17;;
14858;SDS011;7521;51.700;6.874;2024-03-06T14:47:29;29.60;;;24.58;;
14858;SDS011;7521;51.700;6.874;2024-03-06T14:50:34;31.20;;;24.03;;
14858;SDS011;7521;51.700;6.874;2024-03-06T14:53:40;30.02;;;24.48;;
14858;SDS011;7521;51.700;6.874;2024-03-06T14:56:45;33.80;;;24.33;;
14858;SDS011;7521;51.700;6.874;2024-03-06T14:59:50;34.23;;;26.43;;
14858;SDS011;7521;51.700;6.874;2024-03-06T15:02:55;27.87;;;23.23;;
14858;SDS011;7521;51.700;6.874;2024-03-06T15:06:03;25.53;;;21.87;;
14858;SDS011;7521;51.700;6.874;2024-03-06T15:09:08;32.07;;;25.43;;
14858;SDS011;7521;51.700;6.874;2024-03-06T15:12:16;30.50;;;23.93;;
14858;SDS011;7521;51.700;6.874;2024-03-06T15:15:21;32.10;;;25.33;;
14858;SDS011;7521;51.700;6.874;2024-03-06T15:18:27;28.65;;;22.88;;
14858;SDS011;7521;51.700;6.874;2024-03-06T15:21:32;27.33;;;22.47;;
14858;SDS011;7521;51.700;6.874;2024-03-06T15:24:37;26.92;;;20.83;;
14858;SDS011;7521;51.700;6.874;2024-03-06T15:27:42;25.95;;;20.63;;
14858;SDS011;7521;51.700;6.874;2024-03-06T15:30:48;27.20;;;20.13;;
14858;SDS011;7521;51.700;6.874;2024-03-06T15:33:53;27.00;;;19.13;;
14858;SDS011;7521;51.700;6.874;2024-03-06T15:36:59;20.88;;;18.13;;
14858;SDS011;7521;51.700;6.874;2024-03-06T15:40:05;21.80;;;17.20;;
14858;SDS011;7521;51.700;6.874;2024-03-06T15:43:11;23.13;;;18.50;;
14858;SDS011;7521;51.700;6.874;2024-03-06T15:46:16;25.60;;;19.97;;
14858;SDS011;7521;51.700;6.874;2024-03-06T15:49:22;27.57;;;20.23;;
14858;SDS011;7521;51.700;6.874;2024-03-06T15:52:30;34.60;;;21.93;;
14858;SDS011;7521;51.700;6.874;2024-03-06T15:55:36;31.17;;;22.20;;
14858;SDS011;7521;51.700;6.874;2024-03-06T15:58:41;30.00;;;21.63;;
14858;SDS011;7521;51.700;6.874;2024-03-06T16:01:46;33.65;;;22.35;;
14858;SDS011;7521;51.700;6.874;2024-03-06T16:04:51;33.83;;;23.58;;
14858;SDS011;7521;51.700;6.874;2024-03-06T16:07:58;32.00;;;21.88;;
14858;SDS011;7521;51.700;6.874;2024-03-06T16:11:04;31.07;;;22.90;;
14858;SDS011;7521;51.700;6.874;2024-03-06T16:14:09;32.87;;;22.93;;
14858;SDS011;7521;51.700;6.874;2024-03-06T16:17:15;31.63;;;21.97;;
14858;SDS011;7521;51.700;6.874;2024-03-06T16:20:20;32.78;;;23.23;;
14858;SDS011;7521;51.700;6.874;2024-03-06T16:23:25;30.13;;;21.83;;
14858;SDS011;7521;51.700;6.874;2024-03-06T16:26:31;33.40;;;23.50;;
14858;SDS011;7521;51.700;6.874;2024-03-06T16:29:37;33.37;;;23.63;;
14858;SDS011;7521;51.700;6.874;2024-03-06T16:32:42;35.23;;;24.70;;
14858;SDS011;7521;51.700;6.874;2024-03-06T16:35:47;32.97;;;23.42;;
14858;SDS011;7521;51.700;6.874;2024-03-06T16:38:52;35.23;;;24.07;;
14858;SDS011;7521;51.700;6.874;2024-03-06T16:41:57;36.90;;;23.33;;
14858;SDS011;7521;51.700;6.874;2024-03-06T16:45:03;32.00;;;22.70;;
14858;SDS011;7521;51.700;6.874;2024-03-06T16:48:09;36.53;;;23.20;;
14858;SDS011;7521;51.700;6.874;2024-03-06T16:51:17;32.17;;;23.27;;
14858;SDS011;7521;51.700;6.874;2024-03-06T16:54:23;33.93;;;24.03;;
14858;SDS011;7521;51.700;6.874;2024-03-06T16:57:28;32.90;;;22.73;;
14858;SDS011;7521;51.700;6.874;2024-03-06T17:00:33;38.20;;;24.67;;
14858;SDS011;7521;51.700;6.874;2024-03-06T17:03:38;35.63;;;25.13;;
14858;SDS011;7521;51.700;6.874;2024-03-06T17:06:44;35.67;;;24.87;;
14858;SDS011;7521;51.700;6.874;2024-03-06T17:09:49;33.23;;;24.53;;
14858;SDS011;7521;51.700;6.874;2024-03-06T17:12:54;35.28;;;24.85;;
14858;SDS011;7521;51.700;6.874;2024-03-06T17:15:59;37.67;;;24.43;;
14858;SDS011;7521;51.700;6.874;2024-03-06T17:19:05;36.35;;;23.52;;
14858;SDS011;7521;51.700;6.874;2024-03-06T17:22:11;34.80;;;24.43;;
14858;SDS011;7521;51.700;6.874;2024-03-06T17:25:16;36.03;;;27.25;;
14858;SDS011;7521;51.700;6.874;2024-03-06T17:28:23;33.60;;;24.03;;
14858;SDS011;7521;51.700;6.874;2024-03-06T17:31:29;40.33;;;25.70;;
14858;SDS011;7521;51.700;6.874;2024-03-06T17:34:35;38.60;;;24.93;;
14858;SDS011;7521;51.700;6.874;2024-03-06T17:37:40;36.10;;;24.27;;
14858;SDS011;7521;51.700;6.874;2024-03-06T17:40:45;35.58;;;23.48;;
14858;SDS011;7521;51.700;6.874;2024-03-06T17:43:51;39.13;;;25.13;;
14858;SDS011;7521;51.700;6.874;2024-03-06T17:46:56;51.17;;;33.20;;
14858;SDS011;7521;51.700;6.874;2024-03-06T17:50:01;34.42;;;24.35;;
14858;SDS011;7521;51.700;6.874;2024-03-06T17:53:08;38.17;;;25.67;;
14858;SDS011;7521;51.700;6.874;2024-03-06T17:56:14;37.73;;;24.53;;
14858;SDS011;7521;51.700;6.874;2024-03-06T17:59:19;33.10;;;24.03;;
14858;SDS011;7521;51.700;6.874;2024-03-06T18:02:25;34.43;;;24.00;;
14858;SDS011;7521;51.700;6.874;2024-03-06T18:05:30;38.20;;;24.85;;
14858;SDS011;7521;51.700;6.874;2024-03-06T18:08:36;38.43;;;24.67;;
14858;SDS011;7521;51.700;6.874;2024-03-06T18:11:41;39.17;;;26.50;;
14858;SDS011;7521;51.700;6.874;2024-03-06T18:14:46;40.17;;;25.13;;
14858;SDS011;7521;51.700;6.874;2024-03-06T18:17:52;37.72;;;25.35;;
14858;SDS011;7521;51.700;6.874;2024-03-06T18:20:57;35.83;;;25.30;;
14858;SDS011;7521;51.700;6.874;2024-03-06T18:24:02;37.80;;;25.08;;
14858;SDS011;7521;51.700;6.874;2024-03-06T18:27:08;42.50;;;25.30;;
14858;SDS011;7521;51.700;6.874;2024-03-06T18:30:13;44.75;;;29.30;;